Time;durP1;ratioP1;P1;durP2;ratioP2;P2;SDS_P1;SDS_P2;PMS_P1;PMS_P2;Temp;Humidity;BMP_temperature;BMP_pressure;BME280_temperature;BME280_humidity;BME280_pressure;Samples;Min_cycle;Max_cycle;Signal;HPM_P1;HPM_P2
2021/04/23 00:01:18;;;;;;;5.60;5.05;;;;;;;11.79;64.18;94549.27;828973;70;31715;-81
2021/04/23 00:16:19;;;;;;;5.85;5.30;;;;;;;11.87;63.92;94551.20;833795;71;31770;-83
2021/04/23 00:31:10;;;;;;;5.60;5.10;;;;;;;11.87;64.53;94542.55;828364;71;29283;-83
2021/04/23 00:46:09;;;;;;;7.42;4.92;;;;;;;11.61;65.04;94520.70;829915;71;28942;-80
2021/04/23 01:01:23;;;;;;;5.83;5.30;;;;;;;11.82;65.60;94550.01;829167;70;31746;-80
2021/04/23 01:16:19;;;;;;;6.40;5.80;;;;;;;11.62;67.61;94561.15;828010;71;31733;-82
2021/04/23 01:31:12;;;;;;;7.42;6.35;;;;;;;11.58;70.86;94571.23;828027;71;29722;-79
2021/04/23 01:46:09;;;;;;;8.00;6.78;;;;;;;11.46;71.04;94583.53;833881;71;29217;-80
2021/04/23 02:01:14;;;;;;;7.37;6.67;;;;;;;11.45;72.77;94591.16;828080;71;31494;-82
2021/04/23 02:16:10;;;;;;;7.60;6.80;;;;;;;11.30;73.17;94590.13;828986;71;28627;-80
2021/04/23 02:31:18;;;;;;;7.35;6.65;;;;;;;11.16;75.39;94593.48;828193;71;32610;-81
2021/04/23 02:46:20;;;;;;;8.50;7.58;;;;;;;11.16;76.30;94604.53;786806;74;31996;-83
2021/04/23 03:01:49;;;;;;;9.40;8.48;;;;;;;11.32;76.10;94611.63;827227;71;33242;-83
2021/04/23 03:16:20;;;;;;;8.83;7.90;;;;;;;11.28;77.32;94629.80;827721;71;32774;-81
2021/04/23 03:31:14;;;;;;;9.90;7.35;;;;;;;11.33;77.69;94644.16;827635;71;32537;-84
2021/04/23 03:46:15;;;;;;;9.35;8.33;;;;;;;11.29;78.52;94646.34;829525;70;32691;-82
2021/04/23 04:01:18;;;;;;;13.95;11.12;;;;;;;11.15;79.37;94668.10;827032;71;32830;-82
2021/04/23 04:16:13;;;;;;;10.05;8.75;;;;;;;;;;833031;71;33369;-76
2021/04/23 04:31:14;;;;;;;7.53;6.83;;;;;;;11.09;84.86;94686.31;833126;71;32673;-75
2021/04/23 04:46:10;;;;;;;11.22;9.90;;;;;;;11.85;88.21;94689.30;833098;71;30377;-75
2021/04/23 05:01:18;;;;;;;7.50;6.67;;;;;;;12.16;83.08;94710.57;826694;71;32546;-76
2021/04/23 05:16:16;;;;;;;8.08;7.30;;;;;;;12.10;82.77;94714.37;825463;71;32774;-74
2021/04/23 05:31:16;;;;;;;7.80;7.10;;;;;;;12.07;82.76;94721.00;833087;71;32719;-76
2021/04/23 05:46:10;;;;;;;7.37;6.67;;;;;;;12.12;82.27;94737.22;827668;71;30315;-78
2021/04/23 06:01:09;;;;;;;7.58;6.67;;;;;;;12.13;81.04;94744.82;825191;71;29686;-76
2021/04/23 06:16:09;;;;;;;8.53;6.67;;;;;;;12.04;80.77;94749.18;827765;71;29653;-76
2021/04/23 06:31:16;;;;;;;8.48;7.58;;;;;;;12.04;81.59;94755.75;826465;71;32802;-75
2021/04/23 06:46:09;;;;;;;15.03;11.33;;;;;;;12.07;83.95;94764.39;833079;71;29780;-75
2021/04/23 07:01:22;;;;;;;14.78;13.15;;;;;;;12.15;83.50;94768.21;826120;71;32994;-76
2021/04/23 07:16:09;;;;;;;16.87;14.53;;;;;;;12.32;82.90;94776.84;827514;71;30392;-76
2021/04/23 07:31:29;;;;;;;24.82;22.15;;;;;;;12.38;83.65;94785.66;830359;71;33252;-77
2021/04/23 07:46:18;;;;;;;11.70;10.08;;;;;;;12.69;82.66;94798.79;827481;71;32618;-75
2021/04/23 08:01:15;;;;;;;4.72;4.33;;;;;;;12.93;78.64;94796.72;827442;71;32841;-75
2021/04/23 08:16:16;;;;;;;5.00;4.50;;;;;;;13.01;77.48;94804.48;826787;71;32698;-75
2021/04/23 08:31:09;;;;;;;5.70;5.12;;;;;;;13.41;78.12;94798.14;833817;71;29702;-75
2021/04/23 08:46:09;;;;;;;5.47;5.08;;;;;;;13.81;75.82;94797.75;827758;71;29779;-76
2021/04/23 09:01:50;;;;;;;5.78;5.28;;;;;;;13.74;74.28;94804.52;820306;71;32818;-75
2021/04/23 09:16:13;;;;;;;4.10;3.80;;;;;;;13.64;72.66;94806.84;833361;71;33458;-78
2021/04/23 09:31:31;;;;;;;5.08;4.67;;;;;;;13.44;72.34;94806.75;827803;71;29756;-80
2021/04/23 09:46:08;;;;;;;6.90;6.20;;;;;;;13.37;72.13;94811.67;833209;71;29712;-76
2021/04/23 10:01:14;;;;;;;5.10;4.60;;;;;;;13.38;73.09;94816.65;824625;71;32683;-73
2021/04/23 10:16:09;;;;;;;5.40;4.85;;;;;;;13.61;72.27;94806.13;832936;70;31029;-75
2021/04/23 10:31:09;;;;;;;5.35;4.87;;;;;;;13.88;68.19;94814.46;833939;71;30255;-76
2021/04/23 10:46:15;;;;;;;5.25;4.85;;;;;;;14.21;65.44;94815.52;827272;71;30428;-75
2021/04/23 11:01:17;;;;;;;4.65;4.35;;;;;;;14.53;63.44;94817.63;825019;71;30226;-74
2021/04/23 11:16:24;;;;;;;4.97;4.58;;;;;;;14.68;62.97;94803.25;826553;71;32866;-74
2021/04/23 11:31:09;;;;;;;4.70;4.30;;;;;;;15.33;62.75;94789.82;827456;71;29776;-75
2021/04/23 11:46:15;;;;;;;5.75;5.25;;;;;;;16.35;57.01;94783.19;826621;71;33436;-74
2021/04/23 12:01:18;;;;;;;5.47;5.03;;;;;;;17.24;55.26;94767.33;826780;71;32717;-73
2021/04/23 12:16:16;;;;;;;5.17;4.70;;;;;;;17.02;55.75;94766.52;827886;71;31758;-74
2021/04/23 12:31:16;;;;;;;7.70;6.60;;;;;;;16.63;55.54;94763.13;827267;71;29282;-73
2021/04/23 12:46:21;;;;;;;11.35;9.48;;;;;;;16.23;56.54;94752.06;827720;71;29273;-75
2021/04/23 13:01:10;;;;;;;10.18;9.15;;;;;;;15.63;57.56;94776.98;833399;71;29306;-74
2021/04/23 13:16:10;;;;;;;13.85;9.93;;;;;;;15.28;58.06;94758.23;828461;71;29313;-75
2021/04/23 13:31:12;;;;;;;12.30;11.00;;;;;;;15.26;57.86;94757.21;833663;71;29626;-76
2021/04/23 13:46:12;;;;;;;14.80;13.30;;;;;;;15.78;55.00;94758.55;828656;71;29408;-74
2021/04/23 14:01:17;;;;;;;19.27;16.10;;;;;;;15.89;54.68;94760.31;833262;71;31808;-76
2021/04/23 14:16:08;;;;;;;20.32;14.78;;;;;;;15.83;54.10;94761.57;827680;71;28768;-76
2021/04/23 14:31:17;;;;;;;21.00;17.20;;;;;;;15.74;53.79;94763.47;834836;71;31849;-75
2021/04/23 14:46:19;;;;;;;22.13;18.95;;;;;;;15.50;54.41;94769.98;827021;71;32535;-76
2021/04/23 15:01:47;;;;;;;19.40;17.25;;;;;;;15.31;53.81;94788.00;834668;71;31979;-75
2021/04/23 15:16:10;;;;;;;17.67;15.85;;;;;;;15.23;53.49;94775.80;828983;71;28967;-74
2021/04/23 15:31:09;;;;;;;17.62;15.70;;;;;;;15.09;53.61;94773.84;833711;71;29112;-74
2021/04/23 15:46:15;;;;;;;22.20;18.32;;;;;;;15.19;53.55;94748.98;826647;71;31776;-76
2021/04/23 16:01:09;;;;;;;18.20;16.20;;;;;;;14.95;53.01;94754.70;828837;71;29262;-78
2021/04/23 16:16:16;;;;;;;17.82;15.98;;;;;;;14.67;52.69;94755.48;826479;71;31743;-79
2021/04/23 16:31:18;;;;;;;17.90;15.98;;;;;;;14.51;54.12;94765.66;826609;71;31846;-75
2021/04/23 16:46:15;;;;;;;28.35;21.15;;;;;;;14.25;54.64;94762.91;826491;71;31949;-74
2021/04/23 17:01:09;;;;;;;16.32;14.58;;;;;;;13.98;55.04;94785.74;827890;71;28802;-75
2021/04/23 17:16:08;;;;;;;18.75;15.00;;;;;;;13.61;55.75;94803.50;833741;71;28934;-74
2021/04/23 17:31:09;;;;;;;16.65;14.33;;;;;;;13.23;56.41;94812.98;827539;71;29354;-79
2021/04/23 17:46:12;;;;;;;17.15;14.15;;;;;;;12.83;56.79;94844.33;833471;71;31053;-76
2021/04/23 18:01:10;;;;;;;16.57;12.65;;;;;;;12.50;56.51;94874.68;827493;71;29402;-77
2021/04/23 18:16:16;;;;;;;14.43;10.93;;;;;;;12.31;56.28;94886.59;823502;71;31824;-79
2021/04/23 18:31:20;;;;;;;14.35;10.20;;;;;;;12.17;56.28;94897.06;819763;71;32349;-77
2021/04/23 18:46:20;;;;;;;10.45;9.15;;;;;;;12.00;56.47;94926.52;825544;71;31950;-79
2021/04/23 19:01:10;;;;;;;13.30;10.93;;;;;;;11.94;56.79;94959.22;828541;71;29305;-79
2021/04/23 19:16:14;;;;;;;13.20;10.20;;;;;;;11.73;57.15;94940.80;828278;71;31772;-80
2021/04/23 19:31:15;;;;;;;13.93;10.00;;;;;;;11.74;56.73;94951.55;833884;71;31782;-81
2021/04/23 19:46:10;;;;;;;15.90;11.38;;;;;;;11.65;56.32;94953.27;826109;71;29274;-81
2021/04/23 20:01:33;;;;;;;11.88;9.65;;;;;;;11.53;54.63;94961.01;823862;71;31957;-81
2021/04/23 20:16:16;;;;;;;31.65;18.77;;;;;;;11.41;53.59;94952.23;827061;71;32492;-79
2021/04/23 20:31:13;;;;;;;8.88;8.05;;;;;;;11.32;52.93;94959.16;833578;71;31614;-79
2021/04/23 20:46:09;;;;;;;9.35;7.97;;;;;;;11.23;52.25;94975.27;828010;71;29333;-80
2021/04/23 21:01:46;;;;;;;10.35;8.95;;;;;;;11.15;51.83;94978.52;827832;71;32085;-79
2021/04/23 21:16:15;;;;;;;8.45;7.55;;;;;;;11.09;51.11;94987.51;827010;71;32710;-79
2021/04/23 21:31:14;;;;;;;8.40;7.60;;;;;;;11.02;51.07;94999.13;827006;71;32707;-78
2021/04/23 21:46:14;;;;;;;10.65;7.53;;;;;;;10.99;50.63;94997.06;827847;71;32590;-80
2021/04/23 22:01:10;;;;;;;12.35;9.00;;;;;;;10.86;51.60;94988.52;827962;71;30289;-79
2021/04/23 22:16:16;;;;;;;10.90;8.58;;;;;;;10.71;51.54;94996.00;799880;74;32991;-80
2021/04/23 22:31:08;;;;;;;14.00;10.23;;;;;;;10.60;51.78;94995.31;828464;71;29696;-79
2021/04/23 22:46:15;;;;;;;13.08;8.63;;;;;;;10.47;52.23;94984.12;825574;71;33032;-78
2021/04/23 23:01:21;;;;;;;11.25;7.97;;;;;;;;;;827683;71;32722;-79
2021/04/23 23:16:11;;;;;;;11.15;8.28;;;;;;;10.26;52.00;94947.25;835762;71;31529;-79
2021/04/23 23:31:14;;;;;;;9.20;7.30;;;;;;;;;;826935;71;33204;-80
2021/04/23 23:46:13;;;;;;;9.80;7.50;;;;;;;;;;827202;71;32783;-80
